createdAt,value
2023-05-19T00:04:02.530Z,7.81
2023-05-19T00:33:54.726Z,7.47
2023-05-19T00:48:50.621Z,7.77
2023-05-19T01:03:46.821Z,7.41
2023-05-19T01:18:42.744Z,7.04
2023-05-19T01:33:38.544Z,6.79
2023-05-19T01:48:34.269Z,6.43
2023-05-19T02:03:30.143Z,6.33
2023-05-19T02:18:25.949Z,5.85
2023-05-19T02:33:22.005Z,5.77
2023-05-19T02:48:17.742Z,5.33
2023-05-19T03:03:13.291Z,5.03
2023-05-19T03:18:08.417Z,5.06
2023-05-19T03:33:04.456Z,5.38
2023-05-19T03:47:59.941Z,5.07
2023-05-19T04:02:56.222Z,5.02
2023-05-19T04:17:52.413Z,4.98
2023-05-19T04:32:49.048Z,5.46
2023-05-19T04:47:45.093Z,5.61
2023-05-19T05:02:41.593Z,6.39
2023-05-19T05:17:37.827Z,7.06
2023-05-19T05:32:34.199Z,7.25
2023-05-19T05:47:30.583Z,7.97
2023-05-19T06:02:26.925Z,8.67
2023-05-19T06:17:23.819Z,9.35
2023-05-19T06:32:20.436Z,10.24
2023-05-19T06:47:17.076Z,11.1
2023-05-19T07:02:13.512Z,11.13
2023-05-19T07:17:10.072Z,12.17
2023-05-19T07:32:06.876Z,14.04
2023-05-19T07:47:03.450Z,15.94
2023-05-19T08:02:00.210Z,16.07
2023-05-19T08:16:57.037Z,16.87
2023-05-19T08:31:53.850Z,17.41
2023-05-19T08:46:51.003Z,18.26
2023-05-19T09:01:48.406Z,19
2023-05-19T09:16:45.340Z,18.16
2023-05-19T09:31:42.806Z,19.43
2023-05-19T09:46:39.807Z,19.39
2023-05-19T10:01:36.818Z,20.41
2023-05-19T10:16:33.355Z,19.69
2023-05-19T10:31:29.631Z,18.21
2023-05-19T10:46:25.954Z,20.56
2023-05-19T11:01:23.294Z,21.15
2023-05-19T11:16:20.056Z,21.79
2023-05-19T11:31:16.750Z,21.9
2023-05-19T11:46:13.066Z,19.37
2023-05-19T12:01:09.049Z,22.07
2023-05-19T12:16:05.882Z,22.94
2023-05-19T12:31:02.173Z,21.93
2023-05-19T12:45:58.257Z,22.55
2023-05-19T13:00:54.980Z,20.97
2023-05-19T13:15:51.119Z,21.76
2023-05-19T13:30:47.213Z,23.05
2023-05-19T13:45:42.884Z,21.28
2023-05-19T14:00:38.564Z,22.44
2023-05-19T14:15:35.284Z,22.12
2023-05-19T14:30:31.929Z,21.83
2023-05-19T14:45:27.365Z,21.85
2023-05-19T15:00:23.195Z,22.87
2023-05-19T15:15:19.484Z,22.27
2023-05-19T15:30:15.516Z,22.67
2023-05-19T15:45:12.091Z,22.58
2023-05-19T16:00:07.688Z,21.87
2023-05-19T16:15:03.812Z,21.37
2023-05-19T16:29:59.878Z,21.18
2023-05-19T16:44:55.738Z,21.19
2023-05-19T16:59:51.989Z,21.41
2023-05-19T17:14:48.284Z,20.94
2023-05-19T17:29:43.962Z,20.62
2023-05-19T17:44:39.846Z,20.24
2023-05-19T17:59:36.081Z,19.87
2023-05-19T18:14:31.852Z,19.44
2023-05-19T18:29:27.859Z,18.36
2023-05-19T18:44:23.912Z,18.02
2023-05-19T18:59:19.625Z,17.8
2023-05-19T19:14:15.863Z,17.12
2023-05-19T19:29:11.906Z,16.28
2023-05-19T19:44:07.864Z,15.58
2023-05-19T19:59:02.991Z,15.03
2023-05-19T20:13:59.323Z,14.4
2023-05-19T20:28:55.508Z,14.18
2023-05-19T20:43:50.932Z,14.22
2023-05-19T20:58:46.762Z,13.92
2023-05-19T21:13:42.736Z,13.88
2023-05-19T21:28:38.041Z,14.65
2023-05-19T21:43:34.551Z,15.79
2023-05-19T21:58:30.631Z,15.27
2023-05-19T22:13:26.731Z,14.9
2023-05-19T22:28:22.943Z,14.86
2023-05-19T22:43:19.372Z,14.12
2023-05-19T22:58:15.779Z,13.49
2023-05-19T23:13:12.019Z,12.74
2023-05-19T23:28:07.370Z,12.3
2023-05-19T23:43:03.241Z,12.06
2023-05-19T23:57:59.268Z,12.12
